Time;durP1;ratioP1;P1;durP2;ratioP2;P2;SDS_P1;SDS_P2;PMS_P1;PMS_P2;Temp;Humidity;BMP_temperature;BMP_pressure;BME280_temperature;BME280_humidity;BME280_pressure;Samples;Min_cycle;Max_cycle;Signal;HPM_P1;HPM_P2
2022/02/19 00:01:01;;;;;;;8.68;1.55;;;;;;;;;;4953557;28;20086;-70
2022/02/19 00:03:28;;;;;;;6.65;1.35;;;;;;;;;;4953273;28;20598;-71
2022/02/19 00:05:54;;;;;;;6.18;1.00;;;;;;;;;;4953558;28;20047;-70
2022/02/19 00:08:22;;;;;;;4.63;1.25;;;;;;;;;;4953554;28;20055;-70
2022/02/19 00:10:48;;;;;;;8.63;2.15;;;;;;;;;;4953606;28;20051;-69
2022/02/19 00:13:15;;;;;;;9.50;1.58;;;;;;;;;;4953429;28;20052;-70
2022/02/19 00:15:42;;;;;;;8.02;1.30;;;;;;;;;;4953559;28;20396;-70
2022/02/19 00:18:11;;;;;;;8.18;1.67;;;;;;;;;;4953224;28;20522;-69
2022/02/19 00:20:38;;;;;;;5.32;1.50;;;;;;;;;;4953433;28;20410;-70
2022/02/19 00:23:04;;;;;;;6.63;1.10;;;;;;;;;;4953357;28;20059;-71
2022/02/19 00:25:31;;;;;;;9.38;1.25;;;;;;;;;;4953281;28;20051;-70
2022/02/19 00:27:58;;;;;;;4.07;0.90;;;;;;;;;;4953568;29;20098;-71
2022/02/19 00:30:24;;;;;;;7.90;1.30;;;;;;;;;;4953207;28;20109;-71
2022/02/19 00:32:51;;;;;;;5.18;1.20;;;;;;;;;;4953132;28;20494;-70
2022/02/19 00:35:18;;;;;;;6.85;1.27;;;;;;;;;;4953418;28;20055;-70
2022/02/19 00:37:45;;;;;;;8.77;1.40;;;;;;;;;;4953452;28;20061;-70
2022/02/19 00:40:12;;;;;;;8.90;1.85;;;;;;;;;;4968250;28;20098;-70
2022/02/19 00:42:38;;;;;;;10.27;1.33;;;;;;;;;;4953198;28;20054;-70
2022/02/19 00:45:05;;;;;;;7.70;1.35;;;;;;;;;;4953179;29;20058;-69
2022/02/19 00:47:32;;;;;;;8.73;1.48;;;;;;;;;;4953244;28;20136;-71
2022/02/19 00:49:59;;;;;;;9.02;1.45;;;;;;;;;;4953092;28;20499;-70
2022/02/19 00:52:25;;;;;;;6.65;1.35;;;;;;;;;;4953897;28;20498;-70
2022/02/19 00:54:52;;;;;;;5.18;1.35;;;;;;;;;;4956339;29;20479;-70
2022/02/19 00:57:18;;;;;;;5.95;1.17;;;;;;;;;;4956840;28;20047;-71
2022/02/19 00:59:45;;;;;;;9.68;2.60;;;;;;;;;;4956207;28;20103;-71
2022/02/19 01:02:11;;;;;;;7.18;1.17;;;;;;;;;;4956621;28;20396;-70
2022/02/19 01:04:38;;;;;;;6.70;1.25;;;;;;;;;;4956556;28;20051;-70
2022/02/19 01:07:05;;;;;;;6.18;1.33;;;;;;;;;;4956649;29;20063;-71
2022/02/19 01:09:31;;;;;;;5.30;0.93;;;;;;;;;;4956199;28;20050;-70
2022/02/19 01:11:58;;;;;;;6.70;1.42;;;;;;;;;;4956890;29;20047;-70
2022/02/19 01:14:24;;;;;;;4.90;1.10;;;;;;;;;;4956542;28;20086;-71
2022/02/19 01:16:51;;;;;;;13.07;2.78;;;;;;;;;;4956369;28;20495;-70
2022/02/19 01:19:17;;;;;;;4.03;1.35;;;;;;;;;;4956090;28;20498;-70
2022/02/19 01:21:44;;;;;;;5.57;1.45;;;;;;;;;;4956551;29;20047;-70
2022/02/19 01:24:11;;;;;;;7.13;1.00;;;;;;;;;;4956492;29;20107;-70
2022/02/19 01:26:37;;;;;;;2.88;1.17;;;;;;;;;;4956180;29;20462;-70
2022/02/19 01:29:05;;;;;;;5.32;1.27;;;;;;;;;;4956221;28;20354;-70
2022/02/19 01:31:32;;;;;;;9.85;2.20;;;;;;;;;;4956131;28;20047;-70
2022/02/19 01:33:59;;;;;;;4.88;1.08;;;;;;;;;;4970849;28;20426;-70
2022/02/19 01:36:25;;;;;;;5.75;1.13;;;;;;;;;;4956311;28;20051;-70
2022/02/19 01:38:52;;;;;;;4.03;1.00;;;;;;;;;;4956667;28;20051;-71
2022/02/19 01:41:18;;;;;;;7.82;1.00;;;;;;;;;;4955925;28;20055;-70
2022/02/19 01:43:45;;;;;;;8.43;1.10;;;;;;;;;;4955690;29;20047;-70
2022/02/19 01:46:12;;;;;;;8.43;1.88;;;;;;;;;;4955903;28;20054;-70
2022/02/19 01:48:38;;;;;;;12.02;1.25;;;;;;;;;;4956387;28;20059;-71
2022/02/19 01:51:06;;;;;;;6.60;1.02;;;;;;;;;;4956098;28;20047;-70
2022/02/19 01:53:33;;;;;;;2.63;0.88;;;;;;;;;;4938627;29;20106;-70
2022/02/19 01:55:59;;;;;;;8.57;1.10;;;;;;;;;;4955640;28;20043;-70
2022/02/19 01:58:26;;;;;;;4.72;1.30;;;;;;;;;;4955661;28;20502;-71
2022/02/19 02:00:53;;;;;;;5.85;1.30;;;;;;;;;;4955360;28;20454;-70
2022/02/19 02:03:19;;;;;;;6.93;1.17;;;;;;;;;;4955475;28;20047;-70
2022/02/19 02:05:46;;;;;;;5.38;1.13;;;;;;;;;;4954128;28;20047;-70
2022/02/19 02:08:13;;;;;;;4.88;1.10;;;;;;;;;;4955653;28;20491;-70
2022/02/19 02:10:39;;;;;;;7.65;1.48;;;;;;;;;;4950678;28;20047;-70
2022/02/19 02:13:06;;;;;;;6.93;1.30;;;;;;;;;;4936228;29;20048;-70
2022/02/19 02:15:33;;;;;;;7.05;1.35;;;;;;;;;;4936240;29;20059;-70
2022/02/19 02:18:00;;;;;;;4.97;1.00;;;;;;;;;;4955151;28;20570;-70
2022/02/19 02:20:27;;;;;;;8.05;1.63;;;;;;;;;;4955101;28;20051;-71
2022/02/19 02:22:54;;;;;;;3.70;1.27;;;;;;;;;;4955175;29;20055;-70
2022/02/19 02:25:26;;;;;;;4.90;0.90;;;;;;;;;;4955559;28;20051;-70
2022/02/19 02:27:54;;;;;;;4.85;1.00;;;;;;;;;;4955008;28;20569;-70
2022/02/19 02:30:21;;;;;;;3.58;1.35;;;;;;;;;;4955078;28;20047;-70
2022/02/19 02:32:47;;;;;;;6.00;1.30;;;;;;;;;;4954962;28;20284;-70
2022/02/19 02:35:15;;;;;;;7.63;1.13;;;;;;;;;;4954878;28;20095;-70
2022/02/19 02:37:42;;;;;;;3.47;0.93;;;;;;;;;;4955142;28;20130;-70
2022/02/19 02:40:10;;;;;;;2.38;0.85;;;;;;;;;;4955250;28;20047;-71
2022/02/19 02:42:36;;;;;;;8.45;1.30;;;;;;;;;;4954699;28;20051;-70
2022/02/19 02:45:03;;;;;;;6.20;1.52;;;;;;;;;;4954976;28;20184;-70
2022/02/19 02:47:50;;;;;;;9.90;1.83;;;;;;;;;;4954952;28;20146;-70
2022/02/19 02:50:17;;;;;;;4.57;1.35;;;;;;;;;;4954698;28;20113;-70
2022/02/19 02:52:43;;;;;;;5.10;1.50;;;;;;;;;;4954517;28;20047;-71
2022/02/19 02:55:11;;;;;;;4.85;0.90;;;;;;;;;;4954727;28;20055;-71
2022/02/19 02:57:38;;;;;;;4.82;1.25;;;;;;;;;;4954516;28;20110;-70
2022/02/19 03:00:07;;;;;;;9.15;1.52;;;;;;;;;;4954490;28;20503;-70
2022/02/19 03:02:34;;;;;;;7.65;1.05;;;;;;;;;;4954134;28;20176;-70
2022/02/19 03:05:01;;;;;;;8.07;1.55;;;;;;;;;;4953949;29;20059;-70
2022/02/19 03:07:30;;;;;;;13.02;2.20;;;;;;;;;;4956136;29;20051;-70
2022/02/19 03:09:57;;;;;;;8.15;2.13;;;;;;;;;;4962721;28;20055;-71
2022/02/19 03:12:24;;;;;;;7.75;1.92;;;;;;;;;;4963176;28;20055;-70
2022/02/19 03:14:51;;;;;;;8.05;1.58;;;;;;;;;;4963881;28;20298;-71
2022/02/19 03:17:18;;;;;;;4.88;1.35;;;;;;;;;;4976677;28;20047;-70
2022/02/19 03:19:45;;;;;;;6.60;0.93;;;;;;;;;;4954614;28;20079;-71
2022/02/19 03:22:15;;;;;;;6.03;1.00;;;;;;;;;;4954064;28;20055;-70
2022/02/19 03:24:42;;;;;;;6.18;1.00;;;;;;;;;;4954190;28;20056;-70
2022/02/19 03:27:09;;;;;;;8.90;0.90;;;;;;;;;;4953989;29;20054;-69
2022/02/19 03:29:36;;;;;;;3.28;1.52;;;;;;;;;;4953760;28;20094;-70
2022/02/19 03:32:06;;;;;;;6.80;1.75;;;;;;;;;;4953838;28;20051;-70
2022/02/19 03:34:32;;;;;;;5.88;1.50;;;;;;;;;;4954164;28;20110;-70
2022/02/19 03:36:59;;;;;;;3.22;0.63;;;;;;;;;;4971092;29;20051;-71
2022/02/19 03:39:25;;;;;;;7.07;1.25;;;;;;;;;;4966995;28;20056;-69
2022/02/19 03:41:52;;;;;;;6.30;1.30;;;;;;;;;;4966489;28;20491;-70
2022/02/19 03:44:19;;;;;;;6.70;1.05;;;;;;;;;;4966902;28;20110;-70
2022/02/19 03:46:45;;;;;;;4.20;1.70;;;;;;;;;;4967412;28;20063;-71
2022/02/19 03:49:12;;;;;;;5.53;1.33;;;;;;;;;;4967787;28;20047;-70
2022/02/19 03:51:38;;;;;;;12.45;2.10;;;;;;;;;;4967875;29;20054;-70
2022/02/19 03:54:05;;;;;;;5.28;0.90;;;;;;;;;;4966745;29;20478;-71
2022/02/19 03:56:32;;;;;;;2.63;0.80;;;;;;;;;;4967727;28;20047;-70
2022/02/19 03:58:58;;;;;;;10.85;2.60;;;;;;;;;;4967675;28;20051;-71
2022/02/19 04:01:25;;;;;;;7.53;1.48;;;;;;;;;;4966434;28;20043;-70
2022/02/19 04:03:52;;;;;;;7.75;1.27;;;;;;;;;;4966075;29;20097;-71
2022/02/19 04:06:19;;;;;;;6.88;0.98;;;;;;;;;;4967420;28;20114;-70
2022/02/19 04:08:46;;;;;;;3.25;0.90;;;;;;;;;;5007961;23;20586;-68
2022/02/19 04:11:13;;;;;;;5.03;0.80;;;;;;;;;;4992973;28;20046;-67
2022/02/19 04:13:40;;;;;;;7.72;1.10;;;;;;;;;;4993004;28;20105;-68
2022/02/19 04:16:06;;;;;;;8.50;1.35;;;;;;;;;;4991542;28;20480;-67
2022/02/19 04:18:33;;;;;;;6.32;1.23;;;;;;;;;;4992344;28;20058;-67
2022/02/19 04:21:00;;;;;;;4.45;0.80;;;;;;;;;;4992451;28;20137;-68
2022/02/19 04:23:26;;;;;;;6.72;0.98;;;;;;;;;;4992093;28;20050;-68
2022/02/19 04:25:53;;;;;;;4.32;0.95;;;;;;;;;;4992155;28;20054;-68
2022/02/19 04:28:21;;;;;;;5.72;1.10;;;;;;;;;;4993045;28;20101;-68
2022/02/19 04:30:48;;;;;;;2.95;0.73;;;;;;;;;;4996086;28;20089;-68
2022/02/19 04:33:15;;;;;;;8.20;1.23;;;;;;;;;;4996111;28;20050;-68
2022/02/19 04:35:41;;;;;;;4.60;0.90;;;;;;;;;;4996150;28;20104;-68
2022/02/19 04:38:08;;;;;;;5.80;0.80;;;;;;;;;;4996188;28;20054;-68
2022/02/19 04:40:35;;;;;;;9.80;2.30;;;;;;;;;;4995996;28;20043;-68
2022/02/19 04:43:01;;;;;;;5.25;1.00;;;;;;;;;;4995963;28;20085;-70
2022/02/19 04:45:28;;;;;;;6.45;1.30;;;;;;;;;;4995870;28;20050;-69
2022/02/19 04:47:55;;;;;;;6.20;1.33;;;;;;;;;;4995892;28;20376;-68
2022/02/19 04:50:21;;;;;;;5.50;1.30;;;;;;;;;;4995758;28;20100;-68
2022/02/19 04:52:48;;;;;;;7.43;1.35;;;;;;;;;;4995782;28;20420;-67
2022/02/19 04:55:15;;;;;;;8.38;1.48;;;;;;;;;;4995617;28;20109;-68
2022/02/19 04:57:43;;;;;;;6.55;1.05;;;;;;;;;;4995580;28;20050;-67
2022/02/19 05:00:11;;;;;;;10.32;2.50;;;;;;;;;;4995726;28;20149;-68
2022/02/19 05:02:38;;;;;;;6.50;1.15;;;;;;;;;;4995374;28;20050;-68
2022/02/19 05:05:05;;;;;;;4.97;0.90;;;;;;;;;;4995811;28;20105;-68
2022/02/19 05:07:32;;;;;;;9.27;1.35;;;;;;;;;;4995289;28;20104;-67
2022/02/19 05:09:59;;;;;;;3.97;1.00;;;;;;;;;;4995406;28;20050;-68
2022/02/19 05:12:25;;;;;;;6.10;1.10;;;;;;;;;;4994808;28;20054;-69
2022/02/19 05:14:52;;;;;;;11.60;1.30;;;;;;;;;;4995441;28;20050;-67
2022/02/19 05:17:18;;;;;;;6.22;1.20;;;;;;;;;;4995182;28;20093;-67
2022/02/19 05:19:45;;;;;;;9.13;1.88;;;;;;;;;;4995352;28;20073;-69
2022/02/19 05:22:12;;;;;;;6.68;1.13;;;;;;;;;;5010056;28;20055;-67
2022/02/19 05:24:39;;;;;;;6.22;1.58;;;;;;;;;;4995238;28;20058;-68
2022/02/19 05:27:05;;;;;;;10.30;1.08;;;;;;;;;;4995126;28;20108;-69
2022/02/19 05:29:32;;;;;;;9.30;1.27;;;;;;;;;;4995212;28;20537;-68
2022/02/19 05:31:58;;;;;;;7.72;0.90;;;;;;;;;;4994616;28;20050;-67
2022/02/19 05:34:25;;;;;;;6.13;1.10;;;;;;;;;;4995047;28;20054;-67
2022/02/19 05:36:52;;;;;;;7.90;1.45;;;;;;;;;;4995073;28;20108;-68
2022/02/19 05:39:19;;;;;;;6.18;1.83;;;;;;;;;;4994532;28;20116;-68
2022/02/19 05:41:45;;;;;;;7.32;1.00;;;;;;;;;;4994638;28;20054;-67
2022/02/19 05:44:12;;;;;;;7.60;1.05;;;;;;;;;;4975118;28;20101;-68
2022/02/19 05:46:38;;;;;;;13.10;1.23;;;;;;;;;;4992426;28;20141;-67
2022/02/19 05:49:05;;;;;;;8.98;1.58;;;;;;;;;;4994695;28;20054;-68
2022/02/19 05:51:32;;;;;;;5.32;1.00;;;;;;;;;;4994650;28;20046;-67
2022/02/19 05:53:58;;;;;;;7.45;1.40;;;;;;;;;;4994589;28;20058;-69
2022/02/19 05:56:25;;;;;;;7.88;1.85;;;;;;;;;;4994314;28;20563;-67
2022/02/19 05:58:51;;;;;;;14.02;1.92;;;;;;;;;;4994314;28;20050;-67
2022/02/19 06:01:18;;;;;;;11.32;1.33;;;;;;;;;;4994378;28;20050;-69
2022/02/19 06:03:50;;;;;;;8.20;1.42;;;;;;;;;;4994029;28;20072;-67
2022/02/19 06:06:16;;;;;;;7.50;1.13;;;;;;;;;;4994336;28;20050;-69
2022/02/19 06:08:43;;;;;;;9.80;1.55;;;;;;;;;;4994032;28;20501;-67
2022/02/19 06:11:10;;;;;;;9.93;1.08;;;;;;;;;;4994080;28;20124;-68
2022/02/19 06:13:36;;;;;;;5.70;1.13;;;;;;;;;;4993778;28;20050;-68
2022/02/19 06:16:03;;;;;;;5.13;0.95;;;;;;;;;;4994360;28;20046;-69
2022/02/19 06:18:30;;;;;;;12.43;1.33;;;;;;;;;;4993875;28;20443;-67
2022/02/19 06:20:56;;;;;;;10.88;1.38;;;;;;;;;;4993898;28;20054;-68
2022/02/19 06:23:23;;;;;;;8.55;1.55;;;;;;;;;;4993776;28;20058;-68
2022/02/19 06:25:50;;;;;;;8.70;1.45;;;;;;;;;;4994032;28;20054;-67
2022/02/19 06:28:16;;;;;;;11.05;2.13;;;;;;;;;;4993809;28;20054;-69
2022/02/19 06:30:43;;;;;;;9.60;1.60;;;;;;;;;;4993876;28;20070;-68
2022/02/19 06:33:09;;;;;;;12.23;2.75;;;;;;;;;;4993615;28;20054;-68
2022/02/19 06:35:36;;;;;;;8.27;1.52;;;;;;;;;;4993865;28;20050;-69
2022/02/19 06:38:02;;;;;;;12.98;1.48;;;;;;;;;;4993679;28;20055;-69
2022/02/19 06:40:29;;;;;;;4.20;0.88;;;;;;;;;;4994395;28;20057;-70
2022/02/19 06:42:56;;;;;;;6.65;1.35;;;;;;;;;;4994425;28;20046;-69
2022/02/19 06:45:22;;;;;;;11.23;1.25;;;;;;;;;;4993703;28;20108;-69
2022/02/19 06:47:49;;;;;;;9.63;1.83;;;;;;;;;;4993760;28;20120;-69
2022/02/19 06:50:16;;;;;;;8.27;1.48;;;;;;;;;;4993381;28;20712;-70
2022/02/19 06:52:42;;;;;;;14.65;4.28;;;;;;;;;;4992705;28;20050;-68
2022/02/19 06:55:09;;;;;;;11.65;2.72;;;;;;;;;;4991839;28;20399;-71
2022/02/19 06:57:39;;;;;;;12.50;3.92;;;;;;;;;;4993208;28;20391;-70
2022/02/19 07:00:07;;;;;;;8.40;1.40;;;;;;;;;;4993396;28;20053;-69
2022/02/19 07:02:33;;;;;;;9.10;1.20;;;;;;;;;;4992754;28;20101;-69
2022/02/19 07:05:00;;;;;;;8.13;1.52;;;;;;;;;;4993216;28;20121;-69
2022/02/19 07:07:32;;;;;;;10.50;1.40;;;;;;;;;;4993104;28;20053;-70
2022/02/19 07:09:59;;;;;;;3.80;1.05;;;;;;;;;;4988550;28;20109;-69
2022/02/19 07:12:26;;;;;;;11.05;2.90;;;;;;;;;;4974236;28;20043;-68
2022/02/19 07:14:53;;;;;;;8.63;1.65;;;;;;;;;;4990750;28;20145;-68
2022/02/19 07:17:19;;;;;;;9.90;1.73;;;;;;;;;;4990936;28;20501;-69
2022/02/19 07:19:46;;;;;;;11.05;1.90;;;;;;;;;;4990847;28;20050;-68
2022/02/19 07:22:12;;;;;;;6.60;1.63;;;;;;;;;;4990675;28;20042;-69
2022/02/19 07:24:39;;;;;;;7.57;1.92;;;;;;;;;;4990998;28;20492;-66
2022/02/19 07:27:06;;;;;;;8.18;1.42;;;;;;;;;;4990272;28;20481;-69
2022/02/19 07:29:33;;;;;;;8.60;1.73;;;;;;;;;;4990767;28;20054;-69
2022/02/19 07:31:59;;;;;;;5.93;1.73;;;;;;;;;;4975430;28;20046;-68
2022/02/19 07:34:26;;;;;;;11.43;1.52;;;;;;;;;;4990674;28;20054;-67
2022/02/19 07:36:52;;;;;;;8.75;1.70;;;;;;;;;;4989489;28;20093;-69
2022/02/19 07:39:19;;;;;;;11.30;1.33;;;;;;;;;;4990819;28;20129;-68
2022/02/19 07:41:48;;;;;;;5.35;1.45;;;;;;;;;;4990090;28;20049;-65
2022/02/19 07:44:15;;;;;;;8.35;1.42;;;;;;;;;;4989171;28;20069;-66
2022/02/19 07:46:42;;;;;;;9.95;2.00;;;;;;;;;;4990285;28;20058;-66
2022/02/19 08:00:08;;;;;;;8.82;1.30;;;;;;;;;;4990360;28;20523;-66
2022/02/19 08:02:35;;;;;;;7.25;2.58;;;;;;;;;;4989685;28;20050;-66
2022/02/19 08:05:01;;;;;;;5.25;1.00;;;;;;;;;;4990458;28;20134;-68
2022/02/19 08:07:28;;;;;;;11.70;1.20;;;;;;;;;;4989543;28;20054;-65
2022/02/19 08:09:54;;;;;;;9.07;1.02;;;;;;;;;;4990409;28;20112;-66
2022/02/19 08:12:21;;;;;;;9.75;1.85;;;;;;;;;;4989812;28;20050;-67
2022/02/19 08:14:48;;;;;;;9.63;2.10;;;;;;;;;;4990127;28;20100;-68
2022/02/19 08:17:15;;;;;;;10.05;1.27;;;;;;;;;;4990270;28;20366;-67
2022/02/19 08:19:42;;;;;;;7.85;1.33;;;;;;;;;;4989166;28;20097;-67
2022/02/19 08:22:08;;;;;;;6.68;1.10;;;;;;;;;;4989341;28;20054;-66
2022/02/19 08:24:35;;;;;;;7.07;1.38;;;;;;;;;;4989687;28;20054;-66
2022/02/19 08:27:01;;;;;;;6.55;1.42;;;;;;;;;;4990058;28;20054;-68
2022/02/19 08:29:28;;;;;;;9.25;1.40;;;;;;;;;;4990202;28;20113;-69
2022/02/19 08:31:55;;;;;;;11.02;2.55;;;;;;;;;;4990099;28;20486;-68
2022/02/19 08:34:22;;;;;;;9.68;1.73;;;;;;;;;;5006772;28;20050;-67
2022/02/19 08:36:48;;;;;;;4.38;1.30;;;;;;;;;;4991929;28;20563;-67
2022/02/19 08:39:15;;;;;;;6.80;1.10;;;;;;;;;;4991711;28;20120;-67
2022/02/19 08:41:41;;;;;;;10.70;2.13;;;;;;;;;;4991247;28;20050;-68
2022/02/19 08:44:08;;;;;;;11.50;1.60;;;;;;;;;;4990407;28;20469;-68
2022/02/19 08:46:35;;;;;;;9.05;1.50;;;;;;;;;;4991550;28;20141;-66
2022/02/19 08:49:01;;;;;;;10.70;1.40;;;;;;;;;;4991414;28;20449;-67
2022/02/19 08:51:28;;;;;;;7.20;1.27;;;;;;;;;;4991659;28;20394;-68
2022/02/19 08:53:55;;;;;;;6.30;1.45;;;;;;;;;;4991827;28;20055;-68
2022/02/19 08:56:21;;;;;;;8.50;2.72;;;;;;;;;;4991471;28;20046;-67
2022/02/19 08:58:48;;;;;;;8.13;1.13;;;;;;;;;;4991526;28;20201;-68
2022/02/19 09:01:14;;;;;;;5.25;1.15;;;;;;;;;;4991943;28;20047;-68
2022/02/19 09:03:41;;;;;;;3.92;1.10;;;;;;;;;;4991379;28;20562;-68
2022/02/19 09:06:08;;;;;;;7.05;1.38;;;;;;;;;;4991683;28;20090;-67
2022/02/19 09:08:34;;;;;;;9.65;1.67;;;;;;;;;;4991587;28;20105;-68
2022/02/19 09:11:01;;;;;;;6.22;1.63;;;;;;;;;;4992071;28;20054;-67
2022/02/19 09:13:28;;;;;;;4.80;0.90;;;;;;;;;;4991876;28;20054;-67
2022/02/19 09:15:54;;;;;;;10.23;1.73;;;;;;;;;;4995029;28;20058;-67
2022/02/19 09:18:21;;;;;;;7.25;1.30;;;;;;;;;;4995039;28;20113;-67
2022/02/19 09:20:47;;;;;;;7.10;0.88;;;;;;;;;;4995038;28;20109;-67
2022/02/19 09:23:14;;;;;;;7.63;2.45;;;;;;;;;;4995073;28;20073;-67
2022/02/19 09:25:40;;;;;;;6.85;1.33;;;;;;;;;;4994987;28;20050;-67
2022/02/19 09:28:07;;;;;;;9.23;1.27;;;;;;;;;;4995091;28;20054;-68
2022/02/19 09:30:34;;;;;;;10.50;1.25;;;;;;;;;;4995003;28;20129;-68
2022/02/19 09:33:02;;;;;;;10.25;1.58;;;;;;;;;;4994203;28;20042;-67
2022/02/19 09:35:29;;;;;;;6.82;1.25;;;;;;;;;;4994887;28;20054;-68
2022/02/19 09:37:55;;;;;;;10.80;1.88;;;;;;;;;;4995084;28;20050;-69
2022/02/19 09:40:22;;;;;;;6.63;1.40;;;;;;;;;;4994733;28;20085;-68
2022/02/19 09:42:49;;;;;;;15.55;1.55;;;;;;;;;;4994596;28;20062;-68
2022/02/19 09:45:17;;;;;;;7.22;1.50;;;;;;;;;;4994934;28;20050;-69
2022/02/19 09:47:44;;;;;;;6.05;1.65;;;;;;;;;;4994314;28;20050;-68
2022/02/19 09:50:11;;;;;;;6.18;1.10;;;;;;;;;;4994802;28;20054;-68
2022/02/19 09:52:38;;;;;;;6.80;1.85;;;;;;;;;;4994310;28;20096;-67
2022/02/19 09:55:07;;;;;;;11.00;1.80;;;;;;;;;;4994868;28;20125;-68
2022/02/19 09:57:34;;;;;;;7.93;1.40;;;;;;;;;;4994520;28;20069;-68
2022/02/19 10:00:00;;;;;;;4.55;1.40;;;;;;;;;;4994701;28;20050;-67
2022/02/19 10:02:33;;;;;;;7.72;2.00;;;;;;;;;;4994148;28;20056;-68
2022/02/19 10:05:15;;;;;;;3.72;1.27;;;;;;;;;;4994844;28;20050;-68
2022/02/19 10:10:31;;;;;;;10.48;2.42;;;;;;;;;;4915693;29;20048;-66
2022/02/19 10:12:57;;;;;;;7.18;1.67;;;;;;;;;;4916021;29;20056;-68
2022/02/19 10:15:38;;;;;;;5.20;1.15;;;;;;;;;;4917287;29;20100;-68
2022/02/19 10:18:30;;;;;;;4.22;1.27;;;;;;;;;;4917344;29;20059;-69
2022/02/19 10:21:19;;;;;;;7.88;1.33;;;;;;;;;;4917661;29;20056;-68
2022/02/19 10:23:56;;;;;;;7.07;1.38;;;;;;;;;;4916994;29;20056;-68
2022/02/19 10:26:25;;;;;;;8.43;1.25;;;;;;;;;;4916291;29;20058;-69
2022/02/19 10:29:02;;;;;;;6.60;1.30;;;;;;;;;;4916877;29;20056;-68
2022/02/19 10:31:29;;;;;;;8.45;1.60;;;;;;;;;;4917181;29;20052;-67
2022/02/19 10:34:09;;;;;;;8.23;1.70;;;;;;;;;;4917315;29;20052;-66
2022/02/19 10:36:50;;;;;;;7.82;1.67;;;;;;;;;;4917186;29;20079;-68
2022/02/19 10:39:27;;;;;;;4.72;1.42;;;;;;;;;;4916969;29;20052;-67
2022/02/19 10:42:02;;;;;;;4.43;1.00;;;;;;;;;;4917284;29;20048;-68
2022/02/19 10:44:31;;;;;;;4.55;1.10;;;;;;;;;;4916863;29;20107;-68
2022/02/19 10:47:18;;;;;;;7.38;1.23;;;;;;;;;;4917087;29;20056;-68
2022/02/19 10:50:13;;;;;;;8.57;1.65;;;;;;;;;;4916840;29;20056;-64
2022/02/19 10:52:56;;;;;;;11.90;1.88;;;;;;;;;;4905095;29;20052;-68
2022/02/19 10:55:28;;;;;;;6.25;1.48;;;;;;;;;;4928116;29;20586;-71
2022/02/19 10:57:59;;;;;;;6.45;1.00;;;;;;;;;;4917712;29;20067;-71
2022/02/19 11:00:27;;;;;;;7.35;1.20;;;;;;;;;;4914695;29;20106;-72
2022/02/19 11:02:54;;;;;;;4.13;0.82;;;;;;;;;;4917001;29;20054;-75
2022/02/19 11:05:21;;;;;;;3.63;1.17;;;;;;;;;;4915053;29;20111;-71
2022/02/19 11:07:50;;;;;;;7.90;1.33;;;;;;;;;;4914424;29;20083;-72
2022/02/19 11:10:21;;;;;;;5.13;1.20;;;;;;;;;;4913713;29;20056;-69
2022/02/19 11:12:48;;;;;;;6.57;1.48;;;;;;;;;;4927529;29;20055;-69
2022/02/19 11:15:18;;;;;;;8.32;1.50;;;;;;;;;;4914854;29;20060;-70
2022/02/19 11:17:48;;;;;;;7.32;1.20;;;;;;;;;;4915614;29;20052;-68
2022/02/19 11:20:15;;;;;;;3.95;1.70;;;;;;;;;;4915497;29;20052;-68
2022/02/19 11:22:43;;;;;;;10.50;1.75;;;;;;;;;;4902251;29;20079;-70
2022/02/19 11:25:14;;;;;;;6.20;1.88;;;;;;;;;;4914247;29;20052;-71
2022/02/19 11:28:11;;;;;;;5.90;2.40;;;;;;;;;;4931958;29;20567;-70
2022/02/19 11:30:45;;;;;;;4.07;1.70;;;;;;;;;;4910845;29;20056;-69
2022/02/19 11:33:12;;;;;;;4.45;1.10;;;;;;;;;;4927188;29;20044;-67
2022/02/19 11:35:42;;;;;;;5.03;1.10;;;;;;;;;;4928340;29;20440;-67
2022/02/19 11:38:31;;;;;;;3.38;0.82;;;;;;;;;;4914068;29;20460;-69
2022/02/19 11:40:59;;;;;;;7.28;1.08;;;;;;;;;;4914626;29;20048;-67
2022/02/19 11:43:43;;;;;;;4.45;0.90;;;;;;;;;;4914135;29;20044;-72
2022/02/19 11:46:11;;;;;;;4.65;0.88;;;;;;;;;;4912719;29;20059;-70
2022/02/19 11:48:47;;;;;;;2.97;0.70;;;;;;;;;;4932276;29;20539;-70
2022/02/19 11:51:29;;;;;;;4.30;1.10;;;;;;;;;;4936031;29;20056;-68
2022/02/19 11:54:24;;;;;;;3.22;0.85;;;;;;;;;;4922784;29;20056;-67
2022/02/19 11:56:58;;;;;;;6.10;1.23;;;;;;;;;;4917843;29;20060;-67
2022/02/19 11:59:43;;;;;;;3.97;1.27;;;;;;;;;;4933273;29;20090;-70
2022/02/19 12:02:23;;;;;;;3.63;0.73;;;;;;;;;;4917957;29;20044;-68
2022/02/19 12:05:18;;;;;;;4.22;0.98;;;;;;;;;;4919422;29;20052;-69
2022/02/19 12:08:02;;;;;;;4.35;1.02;;;;;;;;;;4916531;29;20051;-70
2022/02/19 12:10:37;;;;;;;4.03;1.10;;;;;;;;;;4917834;29;20048;-69
2022/02/19 12:13:23;;;;;;;4.18;0.93;;;;;;;;;;4928341;29;20099;-69
2022/02/19 12:15:57;;;;;;;2.70;1.17;;;;;;;;;;4920055;29;20048;-72
2022/02/19 12:19:00;;;;;;;3.60;0.70;;;;;;;;;;4938027;29;20084;-72
2022/02/19 12:21:34;;;;;;;5.45;1.35;;;;;;;;;;4926762;29;20063;-75
2022/02/19 12:24:26;;;;;;;;;;;;;;;;;;;;;
2022/02/19 12:27:23;;;;;;;2.42;0.70;;;;;;;;;;4931302;29;20051;-69
2022/02/19 12:30:18;;;;;;;2.47;0.80;;;;;;;;;;4930258;29;20052;-73
2022/02/19 12:36:34;;;;;;;4.13;1.50;;;;;;;;;;4934906;29;20060;-74
2022/02/19 12:40:06;;;;;;;5.70;2.00;;;;;;;;;;4930093;29;20479;-74
2022/02/19 12:42:33;;;;;;;5.05;1.10;;;;;;;;;;4931329;29;20563;-73
2022/02/19 12:45:09;;;;;;;4.28;0.82;;;;;;;;;;4931123;29;20044;-73
2022/02/19 12:47:53;;;;;;;3.20;1.20;;;;;;;;;;4944483;29;20051;-73
2022/02/19 12:50:22;;;;;;;4.97;1.10;;;;;;;;;;4948021;29;20078;-71
2022/02/19 12:53:10;;;;;;;4.13;1.13;;;;;;;;;;4933639;29;20048;-74
2022/02/19 12:56:25;;;;;;;5.03;0.90;;;;;;;;;;4929024;29;20072;-74
2022/02/19 12:59:27;;;;;;;5.13;1.13;;;;;;;;;;4930544;29;20123;-72
2022/02/19 13:02:09;;;;;;;8.13;3.38;;;;;;;;;;4923934;29;20447;-71
2022/02/19 13:05:02;;;;;;;5.07;2.20;;;;;;;;;;4884684;29;20057;-71
2022/02/19 13:07:33;;;;;;;3.60;0.80;;;;;;;;;;4923080;29;20055;-66
2022/02/19 13:10:43;;;;;;;3.00;0.90;;;;;;;;;;4932880;29;20696;-74
2022/02/19 13:13:27;;;;;;;2.45;1.00;;;;;;;;;;4927031;29;20079;-72
2022/02/19 13:15:59;;;;;;;4.35;1.00;;;;;;;;;;4915862;29;20139;-72
2022/02/19 13:18:39;;;;;;;4.07;1.23;;;;;;;;;;4930949;29;20060;-70
2022/02/19 13:21:07;;;;;;;5.00;0.93;;;;;;;;;;4917227;29;20148;-74
2022/02/19 13:23:58;;;;;;;2.13;0.90;;;;;;;;;;4915881;29;20099;-75
2022/02/19 13:26:34;;;;;;;2.80;0.90;;;;;;;;;;4917294;29;20135;-74
2022/02/19 13:29:00;;;;;;;3.45;1.08;;;;;;;;;;4914837;29;20107;-74
2022/02/19 13:31:29;;;;;;;2.30;0.98;;;;;;;;;;4917246;29;20051;-72
2022/02/19 13:33:56;;;;;;;2.75;0.90;;;;;;;;;;4916878;29;20040;-72
2022/02/19 13:36:24;;;;;;;2.55;0.70;;;;;;;;;;4930953;29;20551;-74
2022/02/19 13:38:51;;;;;;;2.03;0.70;;;;;;;;;;4917088;29;20100;-72
2022/02/19 13:41:18;;;;;;;2.67;0.70;;;;;;;;;;4916727;29;20056;-71
2022/02/19 13:43:56;;;;;;;2.08;0.80;;;;;;;;;;4916374;29;20048;-72
2022/02/19 13:46:23;;;;;;;4.45;0.88;;;;;;;;;;4928318;29;20051;-71
2022/02/19 13:48:51;;;;;;;2.97;0.82;;;;;;;;;;4916462;29;20055;-73
2022/02/19 13:51:18;;;;;;;3.45;1.10;;;;;;;;;;4931191;29;20052;-72
2022/02/19 13:53:47;;;;;;;1.90;1.00;;;;;;;;;;4916494;29;20060;-70
2022/02/19 13:56:24;;;;;;;6.00;1.00;;;;;;;;;;4916373;29;20056;-69
2022/02/19 13:59:21;;;;;;;4.40;1.05;;;;;;;;;;4914655;29;20475;-72
2022/02/19 14:01:48;;;;;;;3.80;0.90;;;;;;;;;;4916271;29;20111;-73
2022/02/19 14:04:33;;;;;;;2.58;1.05;;;;;;;;;;4930318;29;20084;-72
2022/02/19 14:07:08;;;;;;;3.08;0.73;;;;;;;;;;4916565;29;20060;-67
2022/02/19 14:09:35;;;;;;;3.78;1.23;;;;;;;;;;4915212;29;20043;-67
2022/02/19 14:12:03;;;;;;;1.30;0.50;;;;;;;;;;4915724;29;20072;-67
2022/02/19 14:14:35;;;;;;;1.80;0.40;;;;;;;;;;4915394;29;20127;-69
2022/02/19 14:17:17;;;;;;;2.47;0.75;;;;;;;;;;4915751;29;20507;-69
2022/02/19 14:19:57;;;;;;;4.15;1.20;;;;;;;;;;4916020;29;20110;-66
2022/02/19 14:22:42;;;;;;;2.60;1.08;;;;;;;;;;4929838;29;20071;-68
2022/02/19 14:25:14;;;;;;;;;;;;;;;;;;4916408;29;20424;-68
2022/02/19 14:27:50;;;;;;;3.22;0.80;;;;;;;;;;4929787;29;19927;-71
2022/02/19 14:30:18;;;;;;;5.72;1.00;;;;;;;;;;4916460;29;20052;-70
2022/02/19 14:32:44;;;;;;;3.08;1.25;;;;;;;;;;4915658;29;20051;-71
2022/02/19 14:35:11;;;;;;;1.40;0.90;;;;;;;;;;4913474;29;20056;-69
2022/02/19 14:37:38;;;;;;;2.72;1.17;;;;;;;;;;4915779;29;20051;-71
2022/02/19 14:40:06;;;;;;;3.35;1.20;;;;;;;;;;4915552;29;20044;-71
2022/02/19 14:42:33;;;;;;;2.00;0.77;;;;;;;;;;4914561;29;20052;-71
2022/02/19 14:45:00;;;;;;;2.13;0.95;;;;;;;;;;4915524;29;20143;-70
2022/02/19 14:47:27;;;;;;;3.67;1.38;;;;;;;;;;4936696;29;20194;-70
2022/02/19 14:49:54;;;;;;;0.85;0.60;;;;;;;;;;4915323;29;20052;-72
2022/02/19 14:52:23;;;;;;;5.65;0.90;;;;;;;;;;4929516;29;20063;-72
2022/02/19 14:54:51;;;;;;;3.40;1.30;;;;;;;;;;4915309;29;20059;-73
2022/02/19 14:57:18;;;;;;;2.67;1.00;;;;;;;;;;4914232;29;20086;-72
2022/02/19 14:59:45;;;;;;;2.03;0.75;;;;;;;;;;4914027;29;20044;-71
2022/02/19 15:02:11;;;;;;;4.00;0.90;;;;;;;;;;4915505;29;20056;-72
2022/02/19 15:04:38;;;;;;;4.70;0.80;;;;;;;;;;4928486;29;20059;-70
2022/02/19 15:07:05;;;;;;;3.33;0.70;;;;;;;;;;4914082;29;20076;-70
2022/02/19 15:09:32;;;;;;;2.70;0.80;;;;;;;;;;4928782;29;20059;-67
2022/02/19 15:11:58;;;;;;;2.13;0.70;;;;;;;;;;4913944;29;20044;-68
2022/02/19 15:14:25;;;;;;;4.95;1.65;;;;;;;;;;4915003;29;20103;-69
2022/02/19 15:16:51;;;;;;;3.85;1.63;;;;;;;;;;4914686;29;20048;-67